sensor_id;sensor_type;location;lat;lon;timestamp;temperature;humidity
73112;HTU21D;61301;51.956;5.876;2022-08-19T00:01:55;23.68;55.49
73112;HTU21D;61301;51.956;5.876;2022-08-19T00:04:26;23.65;55.45
73112;HTU21D;61301;51.956;5.876;2022-08-19T00:06:52;23.58;55.60
73112;HTU21D;61301;51.956;5.876;2022-08-19T00:09:19;23.54;55.67
73112;HTU21D;61301;51.956;5.876;2022-08-19T00:11:46;23.60;55.33
73112;HTU21D;61301;51.956;5.876;2022-08-19T00:14:14;23.62;55.45
73112;HTU21D;61301;51.956;5.876;2022-08-19T00:16:43;23.67;55.23
73112;HTU21D;61301;51.956;5.876;2022-08-19T00:19:10;23.67;55.10
73112;HTU21D;61301;51.956;5.876;2022-08-19T00:21:36;23.67;55.06
73112;HTU21D;61301;51.956;5.876;2022-08-19T00:24:07;23.76;54.83
73112;HTU21D;61301;51.956;5.876;2022-08-19T00:26:34;23.67;54.92
73112;HTU21D;61301;51.956;5.876;2022-08-19T00:29:00;23.70;54.77
73112;HTU21D;61301;51.956;5.876;2022-08-19T00:31:27;23.71;54.75
73112;HTU21D;61301;51.956;5.876;2022-08-19T00:33:54;23.71;54.65
73112;HTU21D;61301;51.956;5.876;2022-08-19T00:36:21;23.77;54.51
73112;HTU21D;61301;51.956;5.876;2022-08-19T00:38:47;23.85;54.32
73112;HTU21D;61301;51.956;5.876;2022-08-19T00:41:15;23.83;54.42
73112;HTU21D;61301;51.956;5.876;2022-08-19T00:43:42;23.81;54.53
73112;HTU21D;61301;51.956;5.876;2022-08-19T00:46:08;23.81;54.44
73112;HTU21D;61301;51.956;5.876;2022-08-19T00:48:34;23.80;54.46
73112;HTU21D;61301;51.956;5.876;2022-08-19T00:51:04;23.83;54.36
73112;HTU21D;61301;51.956;5.876;2022-08-19T00:53:31;23.86;54.27
73112;HTU21D;61301;51.956;5.876;2022-08-19T00:56:01;23.79;54.85
73112;HTU21D;61301;51.956;5.876;2022-08-19T00:58:30;23.69;54.98
73112;HTU21D;61301;51.956;5.876;2022-08-19T01:00:58;23.58;55.19
73112;HTU21D;61301;51.956;5.876;2022-08-19T01:03:24;23.57;55.12
73112;HTU21D;61301;51.956;5.876;2022-08-19T01:05:52;23.57;54.90
73112;HTU21D;61301;51.956;5.876;2022-08-19T01:08:19;23.56;54.78
73112;HTU21D;61301;51.956;5.876;2022-08-19T01:10:52;23.56;54.69
73112;HTU21D;61301;51.956;5.876;2022-08-19T01:13:23;23.54;54.65
73112;HTU21D;61301;51.956;5.876;2022-08-19T01:15:56;23.56;54.61
73112;HTU21D;61301;51.956;5.876;2022-08-19T01:18:23;23.66;54.20
73112;HTU21D;61301;51.956;5.876;2022-08-19T01:20:52;23.51;54.56
73112;HTU21D;61301;51.956;5.876;2022-08-19T01:23:20;23.59;54.37
73112;HTU21D;61301;51.956;5.876;2022-08-19T01:25:51;23.44;55.02
73112;HTU21D;61301;51.956;5.876;2022-08-19T01:28:23;23.31;55.39
73112;HTU21D;61301;51.956;5.876;2022-08-19T01:30:51;23.23;55.44
73112;HTU21D;61301;51.956;5.876;2022-08-19T01:33:17;23.17;55.27
73112;HTU21D;61301;51.956;5.876;2022-08-19T01:35:45;23.14;55.25
73112;HTU21D;61301;51.956;5.876;2022-08-19T01:38:26;23.03;55.78
73112;HTU21D;61301;51.956;5.876;2022-08-19T01:40:52;22.94;55.86
73112;HTU21D;61301;51.956;5.876;2022-08-19T01:43:18;22.94;55.91
73112;HTU21D;61301;51.956;5.876;2022-08-19T01:45:45;22.92;56.44
73112;HTU21D;61301;51.956;5.876;2022-08-19T01:48:12;22.84;57.35
73112;HTU21D;61301;51.956;5.876;2022-08-19T01:50:38;22.73;57.52
73112;HTU21D;61301;51.956;5.876;2022-08-19T01:53:07;22.71;57.14
73112;HTU21D;61301;51.956;5.876;2022-08-19T01:55:40;22.77;56.72
73112;HTU21D;61301;51.956;5.876;2022-08-19T01:58:09;22.79;56.38
73112;HTU21D;61301;51.956;5.876;2022-08-19T02:00:36;22.80;56.18
73112;HTU21D;61301;51.956;5.876;2022-08-19T02:03:02;22.81;56.12
73112;HTU21D;61301;51.956;5.876;2022-08-19T02:05:29;22.81;56.15
73112;HTU21D;61301;51.956;5.876;2022-08-19T02:07:56;22.82;55.97
73112;HTU21D;61301;51.956;5.876;2022-08-19T02:10:22;22.87;55.70
73112;HTU21D;61301;51.956;5.876;2022-08-19T02:12:49;22.80;55.97
73112;HTU21D;61301;51.956;5.876;2022-08-19T02:15:17;22.81;55.97
73112;HTU21D;61301;51.956;5.876;2022-08-19T02:17:45;22.86;55.83
73112;HTU21D;61301;51.956;5.876;2022-08-19T02:20:11;22.88;55.88
73112;HTU21D;61301;51.956;5.876;2022-08-19T02:22:40;22.85;56.52
73112;HTU21D;61301;51.956;5.876;2022-08-19T02:25:12;22.84;56.79
73112;HTU21D;61301;51.956;5.876;2022-08-19T02:27:39;22.78;56.87
73112;HTU21D;61301;51.956;5.876;2022-08-19T02:30:08;22.81;56.63
73112;HTU21D;61301;51.956;5.876;2022-08-19T02:32:35;22.77;57.51
73112;HTU21D;61301;51.956;5.876;2022-08-19T02:35:01;22.76;57.10
73112;HTU21D;61301;51.956;5.876;2022-08-19T02:37:27;22.80;56.79
73112;HTU21D;61301;51.956;5.876;2022-08-19T02:40:12;22.82;56.61
73112;HTU21D;61301;51.956;5.876;2022-08-19T02:42:38;22.82;56.55
73112;HTU21D;61301;51.956;5.876;2022-08-19T02:45:06;22.82;56.59
73112;HTU21D;61301;51.956;5.876;2022-08-19T02:47:33;22.80;56.63
73112;HTU21D;61301;51.956;5.876;2022-08-19T02:50:01;22.60;59.02
73112;HTU21D;61301;51.956;5.876;2022-08-19T02:52:28;22.46;59.28
73112;HTU21D;61301;51.956;5.876;2022-08-19T02:54:54;22.43;58.72
73112;HTU21D;61301;51.956;5.876;2022-08-19T02:57:23;22.42;58.53
73112;HTU21D;61301;51.956;5.876;2022-08-19T02:59:50;22.38;58.61
73112;HTU21D;61301;51.956;5.876;2022-08-19T03:02:16;22.31;58.80
73112;HTU21D;61301;51.956;5.876;2022-08-19T03:04:42;22.37;58.33
73112;HTU21D;61301;51.956;5.876;2022-08-19T03:07:09;22.42;57.97
73112;HTU21D;61301;51.956;5.876;2022-08-19T03:09:37;22.49;57.74
73112;HTU21D;61301;51.956;5.876;2022-08-19T03:12:06;22.54;57.52
73112;HTU21D;61301;51.956;5.876;2022-08-19T03:14:32;22.55;57.47
73112;HTU21D;61301;51.956;5.876;2022-08-19T03:16:58;22.52;57.74
73112;HTU21D;61301;51.956;5.876;2022-08-19T03:19:24;22.63;57.26
73112;HTU21D;61301;51.956;5.876;2022-08-19T03:21:51;22.64;57.16
73112;HTU21D;61301;51.956;5.876;2022-08-19T03:24:18;22.60;57.21
73112;HTU21D;61301;51.956;5.876;2022-08-19T03:26:48;22.55;57.24
73112;HTU21D;61301;51.956;5.876;2022-08-19T03:29:15;22.49;57.44
73112;HTU21D;61301;51.956;5.876;2022-08-19T03:31:42;22.42;57.58
73112;HTU21D;61301;51.956;5.876;2022-08-19T03:34:15;22.18;60.67
73112;HTU21D;61301;51.956;5.876;2022-08-19T03:36:43;21.89;61.05
73112;HTU21D;61301;51.956;5.876;2022-08-19T03:39:10;21.90;60.23
73112;HTU21D;61301;51.956;5.876;2022-08-19T03:41:40;21.88;59.83
73112;HTU21D;61301;51.956;5.876;2022-08-19T03:44:07;21.93;60.01
73112;HTU21D;61301;51.956;5.876;2022-08-19T03:46:34;21.98;59.48
73112;HTU21D;61301;51.956;5.876;2022-08-19T03:49:02;21.89;61.98
73112;HTU21D;61301;51.956;5.876;2022-08-19T03:51:32;21.76;62.06
73112;HTU21D;61301;51.956;5.876;2022-08-19T03:54:01;21.81;61.12
73112;HTU21D;61301;51.956;5.876;2022-08-19T03:56:28;21.79;60.99
73112;HTU21D;61301;51.956;5.876;2022-08-19T03:58:55;21.95;60.09
73112;HTU21D;61301;51.956;5.876;2022-08-19T04:01:24;21.99;59.61
73112;HTU21D;61301;51.956;5.876;2022-08-19T04:03:52;21.97;59.51
73112;HTU21D;61301;51.956;5.876;2022-08-19T04:06:22;21.90;60.22
73112;HTU21D;61301;51.956;5.876;2022-08-19T04:08:50;21.88;60.03
73112;HTU21D;61301;51.956;5.876;2022-08-19T04:11:22;21.89;59.74
73112;HTU21D;61301;51.956;5.876;2022-08-19T04:13:50;21.83;60.06
73112;HTU21D;61301;51.956;5.876;2022-08-19T04:16:20;21.80;59.94
73112;HTU21D;61301;51.956;5.876;2022-08-19T04:18:47;21.78;59.80
73112;HTU21D;61301;51.956;5.876;2022-08-19T04:21:23;21.75;60.69
73112;HTU21D;61301;51.956;5.876;2022-08-19T04:23:49;21.69;60.28
73112;HTU21D;61301;51.956;5.876;2022-08-19T04:26:20;21.67;60.13
73112;HTU21D;61301;51.956;5.876;2022-08-19T04:28:47;21.62;60.19
73112;HTU21D;61301;51.956;5.876;2022-08-19T04:31:15;21.66;59.89
73112;HTU21D;61301;51.956;5.876;2022-08-19T04:33:42;21.69;59.57
73112;HTU21D;61301;51.956;5.876;2022-08-19T04:36:16;21.68;60.78
73112;HTU21D;61301;51.956;5.876;2022-08-19T04:38:42;21.60;60.71
73112;HTU21D;61301;51.956;5.876;2022-08-19T04:41:08;21.66;60.41
73112;HTU21D;61301;51.956;5.876;2022-08-19T04:43:53;21.67;60.07
73112;HTU21D;61301;51.956;5.876;2022-08-19T04:46:19;21.73;59.73
73112;HTU21D;61301;51.956;5.876;2022-08-19T04:48:46;21.81;59.38
73112;HTU21D;61301;51.956;5.876;2022-08-19T04:51:12;21.77;59.48
73112;HTU21D;61301;51.956;5.876;2022-08-19T04:53:40;21.78;59.51
73112;HTU21D;61301;51.956;5.876;2022-08-19T04:56:10;21.87;59.24
73112;HTU21D;61301;51.956;5.876;2022-08-19T04:58:38;21.89;59.00
73112;HTU21D;61301;51.956;5.876;2022-08-19T05:01:05;21.87;58.93
73112;HTU21D;61301;51.956;5.876;2022-08-19T05:03:32;21.84;60.47
73112;HTU21D;61301;51.956;5.876;2022-08-19T05:06:08;21.76;60.37
73112;HTU21D;61301;51.956;5.876;2022-08-19T05:08:36;21.78;60.12
73112;HTU21D;61301;51.956;5.876;2022-08-19T05:11:15;21.78;60.64
73112;HTU21D;61301;51.956;5.876;2022-08-19T05:13:42;21.78;60.09
73112;HTU21D;61301;51.956;5.876;2022-08-19T05:16:11;21.72;60.83
73112;HTU21D;61301;51.956;5.876;2022-08-19T05:18:37;21.72;60.70
73112;HTU21D;61301;51.956;5.876;2022-08-19T05:21:23;21.69;60.51
73112;HTU21D;61301;51.956;5.876;2022-08-19T05:24:08;21.77;60.05
73112;HTU21D;61301;51.956;5.876;2022-08-19T05:26:39;21.77;59.99
73112;HTU21D;61301;51.956;5.876;2022-08-19T05:29:06;21.84;59.67
73112;HTU21D;61301;51.956;5.876;2022-08-19T05:31:34;21.89;59.50
73112;HTU21D;61301;51.956;5.876;2022-08-19T05:34:01;21.96;59.43
73112;HTU21D;61301;51.956;5.876;2022-08-19T05:36:35;22.02;59.38
73112;HTU21D;61301;51.956;5.876;2022-08-19T05:39:03;22.03;59.40
73112;HTU21D;61301;51.956;5.876;2022-08-19T05:41:29;22.18;58.96
73112;HTU21D;61301;51.956;5.876;2022-08-19T05:43:56;22.25;58.81
73112;HTU21D;61301;51.956;5.876;2022-08-19T05:46:23;22.36;58.63
73112;HTU21D;61301;51.956;5.876;2022-08-19T05:48:49;22.31;59.57
73112;HTU21D;61301;51.956;5.876;2022-08-19T05:51:15;22.33;59.39
73112;HTU21D;61301;51.956;5.876;2022-08-19T05:53:42;22.34;60.11
73112;HTU21D;61301;51.956;5.876;2022-08-19T05:56:10;22.40;60.24
73112;HTU21D;61301;51.956;5.876;2022-08-19T05:58:37;22.46;59.93
73112;HTU21D;61301;51.956;5.876;2022-08-19T06:01:04;22.38;62.02
73112;HTU21D;61301;51.956;5.876;2022-08-19T06:03:35;22.43;62.08
73112;HTU21D;61301;51.956;5.876;2022-08-19T06:06:04;22.49;62.29
73112;HTU21D;61301;51.956;5.876;2022-08-19T06:08:31;22.65;61.28
73112;HTU21D;61301;51.956;5.876;2022-08-19T06:11:18;22.79;60.66
73112;HTU21D;61301;51.956;5.876;2022-08-19T06:13:46;22.83;60.35
73112;HTU21D;61301;51.956;5.876;2022-08-19T06:16:17;22.88;60.47
73112;HTU21D;61301;51.956;5.876;2022-08-19T06:18:49;22.98;60.77
73112;HTU21D;61301;51.956;5.876;2022-08-19T06:21:19;22.98;61.00
73112;HTU21D;61301;51.956;5.876;2022-08-19T06:23:46;23.11;60.49
73112;HTU21D;61301;51.956;5.876;2022-08-19T06:26:14;23.06;60.93
73112;HTU21D;61301;51.956;5.876;2022-08-19T06:28:41;23.15;60.70
73112;HTU21D;61301;51.956;5.876;2022-08-19T06:31:10;23.22;61.38
73112;HTU21D;61301;51.956;5.876;2022-08-19T06:33:38;23.15;61.35
73112;HTU21D;61301;51.956;5.876;2022-08-19T06:36:05;23.14;62.05
73112;HTU21D;61301;51.956;5.876;2022-08-19T06:38:31;23.20;61.89
73112;HTU21D;61301;51.956;5.876;2022-08-19T06:41:05;23.14;62.55
73112;HTU21D;61301;51.956;5.876;2022-08-19T06:43:31;23.12;62.73
73112;HTU21D;61301;51.956;5.876;2022-08-19T06:45:57;23.13;62.76
73112;HTU21D;61301;51.956;5.876;2022-08-19T06:48:24;23.23;62.54
73112;HTU21D;61301;51.956;5.876;2022-08-19T06:50:50;23.20;62.52
73112;HTU21D;61301;51.956;5.876;2022-08-19T06:53:17;23.27;62.37
73112;HTU21D;61301;51.956;5.876;2022-08-19T06:55:45;23.21;62.63
73112;HTU21D;61301;51.956;5.876;2022-08-19T06:58:11;23.27;62.53
73112;HTU21D;61301;51.956;5.876;2022-08-19T07:00:37;23.35;62.12
73112;HTU21D;61301;51.956;5.876;2022-08-19T07:03:03;23.37;62.37
73112;HTU21D;61301;51.956;5.876;2022-08-19T07:05:29;23.34;62.66
73112;HTU21D;61301;51.956;5.876;2022-08-19T07:07:55;23.25;63.32
73112;HTU21D;61301;51.956;5.876;2022-08-19T07:10:22;23.29;62.83
73112;HTU21D;61301;51.956;5.876;2022-08-19T07:12:48;23.31;62.75
73112;HTU21D;61301;51.956;5.876;2022-08-19T07:15:16;23.35;62.47
73112;HTU21D;61301;51.956;5.876;2022-08-19T07:17:42;23.39;62.37
73112;HTU21D;61301;51.956;5.876;2022-08-19T07:20:10;23.37;62.61
73112;HTU21D;61301;51.956;5.876;2022-08-19T07:22:37;23.50;62.03
73112;HTU21D;61301;51.956;5.876;2022-08-19T07:25:05;23.55;62.02
73112;HTU21D;61301;51.956;5.876;2022-08-19T07:27:31;23.61;61.76
73112;HTU21D;61301;51.956;5.876;2022-08-19T07:29:57;23.65;61.69
73112;HTU21D;61301;51.956;5.876;2022-08-19T07:32:24;23.79;61.41
73112;HTU21D;61301;51.956;5.876;2022-08-19T07:34:54;23.77;62.08
73112;HTU21D;61301;51.956;5.876;2022-08-19T07:37:20;23.80;61.88
73112;HTU21D;61301;51.956;5.876;2022-08-19T07:39:47;23.88;61.33
73112;HTU21D;61301;51.956;5.876;2022-08-19T07:42:13;23.96;61.06
73112;HTU21D;61301;51.956;5.876;2022-08-19T07:44:40;23.99;60.96
73112;HTU21D;61301;51.956;5.876;2022-08-19T07:47:06;24.00;60.80
73112;HTU21D;61301;51.956;5.876;2022-08-19T07:49:32;24.01;60.62
73112;HTU21D;61301;51.956;5.876;2022-08-19T07:52:02;24.10;60.46
73112;HTU21D;61301;51.956;5.876;2022-08-19T07:54:31;24.12;60.72
73112;HTU21D;61301;51.956;5.876;2022-08-19T07:56:58;24.23;60.25
73112;HTU21D;61301;51.956;5.876;2022-08-19T07:59:24;24.24;60.08
73112;HTU21D;61301;51.956;5.876;2022-08-19T08:01:51;24.28;60.03
73112;HTU21D;61301;51.956;5.876;2022-08-19T08:04:18;24.32;59.67
73112;HTU21D;61301;51.956;5.876;2022-08-19T08:07:04;24.29;59.83
73112;HTU21D;61301;51.956;5.876;2022-08-19T08:09:48;24.36;59.72
73112;HTU21D;61301;51.956;5.876;2022-08-19T08:12:23;24.58;59.48
73112;HTU21D;61301;51.956;5.876;2022-08-19T08:14:53;24.87;59.14
73112;HTU21D;61301;51.956;5.876;2022-08-19T08:17:23;24.98;58.61
73112;HTU21D;61301;51.956;5.876;2022-08-19T08:19:50;25.12;57.91
73112;HTU21D;61301;51.956;5.876;2022-08-19T08:22:19;25.18;57.34
73112;HTU21D;61301;51.956;5.876;2022-08-19T08:25:12;25.40;56.81
73112;HTU21D;61301;51.956;5.876;2022-08-19T08:27:40;25.66;55.84
73112;HTU21D;61301;51.956;5.876;2022-08-19T08:30:08;25.79;54.17
73112;HTU21D;61301;51.956;5.876;2022-08-19T08:32:39;25.83;54.95
73112;HTU21D;61301;51.956;5.876;2022-08-19T08:35:08;25.99;53.57
73112;HTU21D;61301;51.956;5.876;2022-08-19T08:37:35;26.11;53.88
73112;HTU21D;61301;51.956;5.876;2022-08-19T08:40:18;26.26;53.07
73112;HTU21D;61301;51.956;5.876;2022-08-19T08:45:31;26.54;52.95
73112;HTU21D;61301;51.956;5.876;2022-08-19T08:48:02;26.53;52.47
73112;HTU21D;61301;51.956;5.876;2022-08-19T08:50:41;26.28;53.30
73112;HTU21D;61301;51.956;5.876;2022-08-19T08:53:10;26.45;52.93
73112;HTU21D;61301;51.956;5.876;2022-08-19T08:55:36;26.77;51.37
73112;HTU21D;61301;51.956;5.876;2022-08-19T08:58:07;26.90;51.21
73112;HTU21D;61301;51.956;5.876;2022-08-19T09:00:41;27.07;50.04
73112;HTU21D;61301;51.956;5.876;2022-08-19T09:03:28;27.23;49.81
73112;HTU21D;61301;51.956;5.876;2022-08-19T09:05:56;27.35;50.16
73112;HTU21D;61301;51.956;5.876;2022-08-19T09:10:54;27.45;49.26
73112;HTU21D;61301;51.956;5.876;2022-08-19T09:16:15;27.49;50.15
73112;HTU21D;61301;51.956;5.876;2022-08-19T09:18:50;27.45;50.10
73112;HTU21D;61301;51.956;5.876;2022-08-19T09:21:22;27.85;49.24
73112;HTU21D;61301;51.956;5.876;2022-08-19T09:23:48;28.19;49.33
73112;HTU21D;61301;51.956;5.876;2022-08-19T09:26:18;28.27;49.45
73112;HTU21D;61301;51.956;5.876;2022-08-19T09:28:47;28.19;49.31
73112;HTU21D;61301;51.956;5.876;2022-08-19T09:31:16;28.09;49.08
73112;HTU21D;61301;51.956;5.876;2022-08-19T09:33:42;28.10;49.14
73112;HTU21D;61301;51.956;5.876;2022-08-19T09:36:14;28.17;49.08
73112;HTU21D;61301;51.956;5.876;2022-08-19T09:38:40;28.16;48.53
73112;HTU21D;61301;51.956;5.876;2022-08-19T09:41:10;27.91;48.68
73112;HTU21D;61301;51.956;5.876;2022-08-19T09:43:40;27.61;49.82
73112;HTU21D;61301;51.956;5.876;2022-08-19T09:46:07;27.81;49.77
73112;HTU21D;61301;51.956;5.876;2022-08-19T09:48:36;27.83;48.94
73112;HTU21D;61301;51.956;5.876;2022-08-19T09:51:10;27.96;48.07
73112;HTU21D;61301;51.956;5.876;2022-08-19T09:53:37;27.96;48.18
73112;HTU21D;61301;51.956;5.876;2022-08-19T09:56:04;28.10;48.38
73112;HTU21D;61301;51.956;5.876;2022-08-19T09:58:31;28.31;48.12
73112;HTU21D;61301;51.956;5.876;2022-08-19T10:00:58;28.42;47.18
73112;HTU21D;61301;51.956;5.876;2022-08-19T10:03:27;28.25;47.01
73112;HTU21D;61301;51.956;5.876;2022-08-19T10:05:54;28.39;46.88
73112;HTU21D;61301;51.956;5.876;2022-08-19T10:08:33;28.52;46.64
73112;HTU21D;61301;51.956;5.876;2022-08-19T10:11:00;28.70;45.95
73112;HTU21D;61301;51.956;5.876;2022-08-19T10:13:28;28.65;45.54
73112;HTU21D;61301;51.956;5.876;2022-08-19T10:16:06;28.39;45.25
73112;HTU21D;61301;51.956;5.876;2022-08-19T10:18:33;28.31;46.02
73112;HTU21D;61301;51.956;5.876;2022-08-19T10:21:13;28.42;45.93
73112;HTU21D;61301;51.956;5.876;2022-08-19T10:23:41;28.42;45.87
73112;HTU21D;61301;51.956;5.876;2022-08-19T10:26:16;28.40;45.99
73112;HTU21D;61301;51.956;5.876;2022-08-19T10:28:43;28.59;45.49
73112;HTU21D;61301;51.956;5.876;2022-08-19T10:31:18;28.59;46.09
73112;HTU21D;61301;51.956;5.876;2022-08-19T10:33:46;28.71;45.56
73112;HTU21D;61301;51.956;5.876;2022-08-19T10:36:18;28.94;45.11
73112;HTU21D;61301;51.956;5.876;2022-08-19T10:38:47;29.24;44.63
73112;HTU21D;61301;51.956;5.876;2022-08-19T10:41:18;29.37;43.67
73112;HTU21D;61301;51.956;5.876;2022-08-19T10:43:45;29.17;43.84
73112;HTU21D;61301;51.956;5.876;2022-08-19T10:46:13;29.03;44.44
73112;HTU21D;61301;51.956;5.876;2022-08-19T10:48:41;29.18;43.99
73112;HTU21D;61301;51.956;5.876;2022-08-19T10:51:08;29.21;44.05
73112;HTU21D;61301;51.956;5.876;2022-08-19T10:53:54;29.11;43.70
73112;HTU21D;61301;51.956;5.876;2022-08-19T10:56:21;29.13;44.24
73112;HTU21D;61301;51.956;5.876;2022-08-19T10:59:06;29.27;44.24
73112;HTU21D;61301;51.956;5.876;2022-08-19T11:01:33;29.52;43.74
73112;HTU21D;61301;51.956;5.876;2022-08-19T11:04:01;29.66;43.35
73112;HTU21D;61301;51.956;5.876;2022-08-19T11:06:28;29.92;43.03
73112;HTU21D;61301;51.956;5.876;2022-08-19T11:08:55;29.98;43.00
73112;HTU21D;61301;51.956;5.876;2022-08-19T11:11:22;30.17;42.84
73112;HTU21D;61301;51.956;5.876;2022-08-19T11:13:49;30.51;41.90
73112;HTU21D;61301;51.956;5.876;2022-08-19T11:16:27;30.47;40.55
73112;HTU21D;61301;51.956;5.876;2022-08-19T11:18:57;30.34;40.80
73112;HTU21D;61301;51.956;5.876;2022-08-19T11:21:32;30.59;41.38
73112;HTU21D;61301;51.956;5.876;2022-08-19T11:24:03;30.79;41.33
73112;HTU21D;61301;51.956;5.876;2022-08-19T11:26:30;30.86;41.44
73112;HTU21D;61301;51.956;5.876;2022-08-19T11:28:58;31.16;41.44
73112;HTU21D;61301;51.956;5.876;2022-08-19T11:31:27;30.98;40.17
73112;HTU21D;61301;51.956;5.876;2022-08-19T11:33:59;31.07;40.24
73112;HTU21D;61301;51.956;5.876;2022-08-19T11:36:26;30.89;39.78
73112;HTU21D;61301;51.956;5.876;2022-08-19T11:38:52;30.80;40.13
73112;HTU21D;61301;51.956;5.876;2022-08-19T11:41:20;30.94;39.90
73112;HTU21D;61301;51.956;5.876;2022-08-19T11:43:47;31.06;39.75
73112;HTU21D;61301;51.956;5.876;2022-08-19T11:46:14;31.19;39.96
73112;HTU21D;61301;51.956;5.876;2022-08-19T11:48:40;31.30;40.23
73112;HTU21D;61301;51.956;5.876;2022-08-19T11:51:10;31.61;39.67
73112;HTU21D;61301;51.956;5.876;2022-08-19T11:53:37;31.64;38.94
73112;HTU21D;61301;51.956;5.876;2022-08-19T11:56:05;31.58;39.04
73112;HTU21D;61301;51.956;5.876;2022-08-19T11:58:32;31.63;38.85
73112;HTU21D;61301;51.956;5.876;2022-08-19T12:00:58;31.69;38.39
73112;HTU21D;61301;51.956;5.876;2022-08-19T12:03:24;31.60;38.30
73112;HTU21D;61301;51.956;5.876;2022-08-19T12:05:50;31.43;39.00
73112;HTU21D;61301;51.956;5.876;2022-08-19T12:08:17;31.46;39.34
73112;HTU21D;61301;51.956;5.876;2022-08-19T12:10:43;31.58;39.22
73112;HTU21D;61301;51.956;5.876;2022-08-19T12:13:11;31.36;38.68
73112;HTU21D;61301;51.956;5.876;2022-08-19T12:15:40;31.41;39.34
73112;HTU21D;61301;51.956;5.876;2022-08-19T12:18:07;31.46;39.87
73112;HTU21D;61301;51.956;5.876;2022-08-19T12:20:35;31.70;39.66
73112;HTU21D;61301;51.956;5.876;2022-08-19T12:23:03;32.00;39.07
73112;HTU21D;61301;51.956;5.876;2022-08-19T12:25:29;32.29;39.00
73112;HTU21D;61301;51.956;5.876;2022-08-19T12:27:57;32.55;37.88
73112;HTU21D;61301;51.956;5.876;2022-08-19T12:30:23;32.52;37.85
73112;HTU21D;61301;51.956;5.876;2022-08-19T12:32:49;32.47;38.43
73112;HTU21D;61301;51.956;5.876;2022-08-19T12:35:17;32.41;37.95
73112;HTU21D;61301;51.956;5.876;2022-08-19T12:37:47;32.39;37.74
73112;HTU21D;61301;51.956;5.876;2022-08-19T12:40:14;32.35;37.57
73112;HTU21D;61301;51.956;5.876;2022-08-19T12:42:41;32.28;38.02
73112;HTU21D;61301;51.956;5.876;2022-08-19T12:45:09;32.31;38.75
73112;HTU21D;61301;51.956;5.876;2022-08-19T12:47:36;32.42;38.65
73112;HTU21D;61301;51.956;5.876;2022-08-19T12:50:03;32.37;38.22
73112;HTU21D;61301;51.956;5.876;2022-08-19T12:52:29;32.12;38.20
73112;HTU21D;61301;51.956;5.876;2022-08-19T12:54:56;32.13;38.64
73112;HTU21D;61301;51.956;5.876;2022-08-19T12:57:27;31.85;38.51
73112;HTU21D;61301;51.956;5.876;2022-08-19T12:59:53;31.99;38.33
73112;HTU21D;61301;51.956;5.876;2022-08-19T13:02:19;32.09;38.88
73112;HTU21D;61301;51.956;5.876;2022-08-19T13:04:45;32.38;38.04
73112;HTU21D;61301;51.956;5.876;2022-08-19T13:07:12;32.49;37.96
73112;HTU21D;61301;51.956;5.876;2022-08-19T13:09:38;32.27;37.74
73112;HTU21D;61301;51.956;5.876;2022-08-19T13:12:06;32.03;38.88
73112;HTU21D;61301;51.956;5.876;2022-08-19T13:14:39;32.20;38.83
73112;HTU21D;61301;51.956;5.876;2022-08-19T13:17:06;32.29;38.92
73112;HTU21D;61301;51.956;5.876;2022-08-19T13:19:32;32.37;38.46
73112;HTU21D;61301;51.956;5.876;2022-08-19T13:21:58;32.49;37.64
73112;HTU21D;61301;51.956;5.876;2022-08-19T13:24:25;32.39;38.43
73112;HTU21D;61301;51.956;5.876;2022-08-19T13:26:51;32.50;38.10
73112;HTU21D;61301;51.956;5.876;2022-08-19T13:29:17;32.67;38.08
73112;HTU21D;61301;51.956;5.876;2022-08-19T13:32:02;32.79;37.21
73112;HTU21D;61301;51.956;5.876;2022-08-19T13:34:46;32.43;37.34
73112;HTU21D;61301;51.956;5.876;2022-08-19T13:37:12;32.35;38.00
73112;HTU21D;61301;51.956;5.876;2022-08-19T13:39:38;32.42;38.11
73112;HTU21D;61301;51.956;5.876;2022-08-19T13:42:04;32.82;37.60
73112;HTU21D;61301;51.956;5.876;2022-08-19T13:44:32;32.83;37.37
73112;HTU21D;61301;51.956;5.876;2022-08-19T13:47:04;32.70;37.46
73112;HTU21D;61301;51.956;5.876;2022-08-19T13:49:33;32.58;37.75
73112;HTU21D;61301;51.956;5.876;2022-08-19T13:52:03;32.64;38.12
73112;HTU21D;61301;51.956;5.876;2022-08-19T13:54:29;32.66;37.68
73112;HTU21D;61301;51.956;5.876;2022-08-19T13:56:55;32.55;38.08
73112;HTU21D;61301;51.956;5.876;2022-08-19T13:59:21;32.43;37.91
73112;HTU21D;61301;51.956;5.876;2022-08-19T14:01:47;32.46;38.46
73112;HTU21D;61301;51.956;5.876;2022-08-19T14:04:13;32.41;38.19
73112;HTU21D;61301;51.956;5.876;2022-08-19T14:06:39;32.23;38.56
73112;HTU21D;61301;51.956;5.876;2022-08-19T14:09:05;31.84;39.07
73112;HTU21D;61301;51.956;5.876;2022-08-19T14:11:31;31.90;39.27
73112;HTU21D;61301;51.956;5.876;2022-08-19T14:13:57;31.98;39.57
73112;HTU21D;61301;51.956;5.876;2022-08-19T14:16:23;31.86;39.17
73112;HTU21D;61301;51.956;5.876;2022-08-19T14:18:50;31.58;40.24
73112;HTU21D;61301;51.956;5.876;2022-08-19T14:21:20;31.55;40.22
73112;HTU21D;61301;51.956;5.876;2022-08-19T14:23:47;31.36;40.15
73112;HTU21D;61301;51.956;5.876;2022-08-19T14:26:16;31.19;40.81
73112;HTU21D;61301;51.956;5.876;2022-08-19T14:28:43;31.00;41.71
73112;HTU21D;61301;51.956;5.876;2022-08-19T14:31:13;30.98;41.55
73112;HTU21D;61301;51.956;5.876;2022-08-19T14:33:42;30.89;41.72
73112;HTU21D;61301;51.956;5.876;2022-08-19T14:36:08;30.80;41.71
73112;HTU21D;61301;51.956;5.876;2022-08-19T14:38:34;30.77;41.90
73112;HTU21D;61301;51.956;5.876;2022-08-19T14:43:33;30.69;42.28
73112;HTU21D;61301;51.956;5.876;2022-08-19T14:46:00;30.68;42.46
73112;HTU21D;61301;51.956;5.876;2022-08-19T14:48:25;30.70;42.46
73112;HTU21D;61301;51.956;5.876;2022-08-19T14:50:52;30.89;42.18
73112;HTU21D;61301;51.956;5.876;2022-08-19T14:53:18;30.92;42.30
73112;HTU21D;61301;51.956;5.876;2022-08-19T14:55:46;30.94;42.41
73112;HTU21D;61301;51.956;5.876;2022-08-19T14:58:12;30.98;42.06
73112;HTU21D;61301;51.956;5.876;2022-08-19T15:00:38;31.05;41.83
73112;HTU21D;61301;51.956;5.876;2022-08-19T15:03:04;31.15;41.58
73112;HTU21D;61301;51.956;5.876;2022-08-19T15:05:30;30.92;42.00
73112;HTU21D;61301;51.956;5.876;2022-08-19T15:07:57;30.71;41.89
73112;HTU21D;61301;51.956;5.876;2022-08-19T15:10:23;30.57;42.12
73112;HTU21D;61301;51.956;5.876;2022-08-19T15:12:50;30.37;42.66
73112;HTU21D;61301;51.956;5.876;2022-08-19T15:15:16;30.07;43.36
73112;HTU21D;61301;51.956;5.876;2022-08-19T15:17:44;29.98;43.69
73112;HTU21D;61301;51.956;5.876;2022-08-19T15:20:16;29.88;43.91
73112;HTU21D;61301;51.956;5.876;2022-08-19T15:22:42;29.54;44.77
73112;HTU21D;61301;51.956;5.876;2022-08-19T15:25:10;29.41;45.71
73112;HTU21D;61301;51.956;5.876;2022-08-19T15:27:37;29.35;46.12
73112;HTU21D;61301;51.956;5.876;2022-08-19T15:30:05;29.31;46.12
73112;HTU21D;61301;51.956;5.876;2022-08-19T15:32:31;29.38;45.88
73112;HTU21D;61301;51.956;5.876;2022-08-19T15:34:57;29.19;47.06